Time;durP1;ratioP1;P1;durP2;ratioP2;P2;SDS_P1;SDS_P2;PMS_P1;PMS_P2;Temp;Humidity;BMP_temperature;BMP_pressure;BME280_temperature;BME280_humidity;BME280_pressure;Samples;Min_cycle;Max_cycle;Signal;HPM_P1;HPM_P2
2022/01/10 00:01:02;;;;;;;82.32;43.22;;;;;;;-1.34;100.00;97047.59;5113938;27;20492;-74
2022/01/10 00:03:27;;;;;;;88.60;45.42;;;;;;;-1.31;100.00;97049.78;5114079;28;20004;-74
2022/01/10 00:05:53;;;;;;;84.53;43.38;;;;;;;-1.30;100.00;97051.41;5112388;28;20476;-76
2022/01/10 00:08:19;;;;;;;87.25;45.13;;;;;;;-1.33;100.00;97054.59;5113020;28;20107;-75
2022/01/10 00:10:44;;;;;;;94.68;45.58;;;;;;;-1.37;100.00;97053.44;5114113;28;20359;-76
2022/01/10 00:13:10;;;;;;;84.93;44.33;;;;;;;-1.39;100.00;97054.75;5114836;28;20020;-73
2022/01/10 00:15:35;;;;;;;89.30;43.55;;;;;;;-1.25;100.00;97062.22;5114300;28;20035;-74
2022/01/10 00:18:03;;;;;;;85.07;44.42;;;;;;;-1.26;100.00;97065.16;5114243;28;20019;-75
2022/01/10 00:20:29;;;;;;;88.18;43.63;;;;;;;-1.25;100.00;97066.78;5114125;28;20035;-75
2022/01/10 00:22:55;;;;;;;83.03;42.95;;;;;;;-1.31;100.00;97063.19;5113919;28;20035;-75
2022/01/10 00:25:22;;;;;;;82.90;42.90;;;;;;;-1.32;100.00;97072.31;5115373;28;20023;-75
2022/01/10 00:27:51;;;;;;;85.50;41.78;;;;;;;-1.27;100.00;97063.53;5115431;28;20016;-74
2022/01/10 00:30:17;;;;;;;93.40;43.22;;;;;;;-1.31;100.00;97065.06;5114092;28;20024;-73
2022/01/10 00:32:44;;;;;;;86.32;42.75;;;;;;;-1.31;100.00;97065.88;5114222;28;20065;-73
2022/01/10 00:35:10;;;;;;;83.25;42.63;;;;;;;-1.34;100.00;97077.09;5115929;28;20047;-74
2022/01/10 00:37:39;;;;;;;82.05;43.13;;;;;;;-1.43;100.00;97075.84;5115089;28;20051;-73
2022/01/10 00:40:05;;;;;;;81.15;43.03;;;;;;;-1.44;100.00;97081.47;5113752;28;20070;-74
2022/01/10 00:42:32;;;;;;;91.90;44.00;;;;;;;-1.38;100.00;97080.50;5113594;28;20035;-73
2022/01/10 00:45:01;;;;;;;82.47;42.20;;;;;;;-1.37;100.00;97085.63;5113691;28;20777;-74
2022/01/10 00:47:27;;;;;;;78.93;43.05;;;;;;;-1.35;100.00;97086.22;5112160;28;20031;-76
2022/01/10 00:49:53;;;;;;;84.47;40.42;;;;;;;-1.38;100.00;97083.97;5111582;28;20043;-74
2022/01/10 00:52:19;;;;;;;79.00;39.95;;;;;;;-1.36;100.00;97097.16;5113122;28;20016;-74
2022/01/10 00:54:44;;;;;;;74.63;40.80;;;;;;;-1.31;100.00;97100.75;5113415;27;20024;-74
2022/01/10 00:57:10;;;;;;;77.95;41.35;;;;;;;-1.45;100.00;97087.88;5113054;28;20043;-74
2022/01/10 00:59:35;;;;;;;78.93;41.17;;;;;;;-1.38;100.00;97094.69;5113494;27;20771;-74
2022/01/10 01:02:01;;;;;;;76.38;41.33;;;;;;;-1.39;100.00;97092.28;5113184;28;20020;-73
2022/01/10 01:04:27;;;;;;;85.93;42.35;;;;;;;-1.28;100.00;97097.56;5113110;28;20022;-74
2022/01/10 01:06:53;;;;;;;85.63;42.22;;;;;;;-1.39;100.00;97082.38;5113277;28;20055;-74
2022/01/10 01:09:24;;;;;;;77.18;40.63;;;;;;;-1.28;100.00;97094.88;5111755;28;20468;-74
2022/01/10 01:12:15;;;;;;;81.22;42.03;;;;;;;-1.31;100.00;97100.75;5112743;28;20024;-74
2022/01/10 01:25:05;;;;;;;83.25;42.05;;;;;;;-1.19;100.00;97093.44;5112679;28;20124;-74
2022/01/10 01:27:30;;;;;;;84.85;41.72;;;;;;;-1.16;100.00;97103.69;5111605;28;20165;-74
2022/01/10 01:29:56;;;;;;;83.68;42.35;;;;;;;-1.22;100.00;97104.66;5112796;28;20138;-74
2022/01/10 01:32:22;;;;;;;78.82;41.58;;;;;;;-1.20;100.00;97099.88;5113617;28;20035;-74
2022/01/10 01:34:48;;;;;;;76.07;41.38;;;;;;;-1.22;100.00;97093.91;5112318;28;20031;-75
2022/01/10 01:37:13;;;;;;;77.90;40.70;;;;;;;-1.23;100.00;97108.41;5111474;28;20038;-76
2022/01/10 01:39:39;;;;;;;77.75;40.58;;;;;;;-1.31;100.00;97105.28;5112814;28;20027;-76
2022/01/10 01:42:18;;;;;;;84.80;42.00;;;;;;;-1.31;100.00;97105.28;5112411;28;20050;-77
2022/01/10 01:44:47;;;;;;;78.85;40.65;;;;;;;-1.24;100.00;97114.00;5112763;28;20120;-76
2022/01/10 01:47:13;;;;;;;80.70;42.58;;;;;;;-1.26;100.00;97113.44;5110774;28;20030;-75
2022/01/10 01:49:38;;;;;;;76.05;39.70;;;;;;;-1.23;100.00;97102.22;5112357;28;20023;-75
2022/01/10 01:52:07;;;;;;;85.88;39.88;;;;;;;-1.28;100.00;97104.81;5112284;28;20022;-76
2022/01/10 01:54:32;;;;;;;76.38;39.60;;;;;;;-1.36;100.00;97095.28;5112218;28;20537;-75
2022/01/10 01:56:58;;;;;;;83.20;40.67;;;;;;;-1.33;100.00;97113.59;5111955;28;20039;-75
2022/01/10 01:59:24;;;;;;;79.00;40.13;;;;;;;-1.37;100.00;97107.06;5112045;28;20023;-75
2022/01/10 02:01:49;;;;;;;81.68;42.95;;;;;;;-1.38;100.00;97096.59;5111731;28;20211;-76
2022/01/10 02:04:15;;;;;;;79.22;41.30;;;;;;;-1.40;100.00;97107.53;5109968;28;20059;-75
2022/01/10 02:06:40;;;;;;;89.55;42.33;;;;;;;-1.41;100.00;97094.41;5112107;28;20501;-76
2022/01/10 02:09:06;;;;;;;80.70;40.08;;;;;;;-1.53;100.00;97086.38;5112059;28;20442;-75
2022/01/10 02:11:31;;;;;;;79.57;41.05;;;;;;;-1.48;100.00;97104.44;5112094;28;20385;-75
2022/01/10 02:13:56;;;;;;;80.20;40.80;;;;;;;-1.48;100.00;97102.59;5112348;28;20054;-75
2022/01/10 02:16:32;;;;;;;84.78;40.90;;;;;;;-1.57;100.00;97092.50;5110535;28;20024;-76
2022/01/10 02:18:58;;;;;;;74.88;38.42;;;;;;;-1.50;100.00;97107.34;5111032;28;20016;-76
2022/01/10 02:21:24;;;;;;;77.80;39.72;;;;;;;-1.49;100.00;97103.63;5114419;28;20023;-75
2022/01/10 02:23:49;;;;;;;73.97;38.63;;;;;;;-1.44;100.00;97105.59;5112597;28;20015;-75
2022/01/10 02:26:15;;;;;;;71.15;38.83;;;;;;;-1.45;100.00;97110.16;5113322;28;20046;-75
2022/01/10 02:28:41;;;;;;;75.53;37.75;;;;;;;-1.51;100.00;97099.56;5112932;28;20106;-76
2022/01/10 02:31:07;;;;;;;77.72;38.72;;;;;;;-1.53;100.00;97113.19;5111797;28;20072;-75
2022/01/10 02:33:33;;;;;;;73.82;38.75;;;;;;;-1.54;100.00;97116.94;5111873;28;21433;-76
2022/01/10 02:38:30;;;;;;;74.80;38.53;;;;;;;-1.57;100.00;97105.88;5111625;28;20135;-76
2022/01/10 02:40:57;;;;;;;78.70;40.63;;;;;;;-1.61;100.00;97108.22;5111417;28;20106;-76
2022/01/10 02:43:22;;;;;;;73.47;38.97;;;;;;;-1.49;100.00;97114.34;5111784;28;20031;-75
2022/01/10 02:45:48;;;;;;;74.53;39.63;;;;;;;-1.51;100.00;97107.59;5110964;28;20031;-76
2022/01/10 02:48:14;;;;;;;81.28;39.10;;;;;;;-1.46;100.00;97113.06;5113793;28;20020;-77
2022/01/10 02:50:39;;;;;;;81.22;40.05;;;;;;;-1.51;100.00;97116.47;5112993;28;20106;-75
2022/01/10 02:53:05;;;;;;;71.63;38.75;;;;;;;-1.49;100.00;97109.00;5111520;28;20023;-75
2022/01/10 02:55:31;;;;;;;74.03;39.28;;;;;;;-1.54;100.00;97116.94;5111102;28;20031;-75
2022/01/10 02:57:56;;;;;;;77.45;40.40;;;;;;;-1.45;100.00;97114.69;5110030;28;20020;-76
2022/01/10 03:00:24;;;;;;;77.43;40.72;;;;;;;-1.47;100.00;97122.16;5111092;28;20452;-76
2022/01/10 03:02:51;;;;;;;78.50;40.90;;;;;;;-1.48;100.00;97121.34;5111200;28;20081;-74
2022/01/10 03:05:18;;;;;;;83.30;41.70;;;;;;;-1.50;100.00;97120.75;5111250;28;20028;-75
2022/01/10 03:07:43;;;;;;;74.80;40.78;;;;;;;-1.44;100.00;97119.81;5111098;28;20047;-74
2022/01/10 03:10:09;;;;;;;73.32;40.15;;;;;;;-1.36;100.00;97126.66;5110962;28;20472;-75
2022/01/10 03:12:38;;;;;;;69.78;38.28;;;;;;;-1.43;100.00;97121.44;5110803;28;20032;-74
2022/01/10 03:15:07;;;;;;;81.10;40.83;;;;;;;-1.52;100.00;97114.84;5111498;28;20448;-75
2022/01/10 03:17:33;;;;;;;74.38;40.20;;;;;;;-1.36;100.00;97119.44;5115162;28;20482;-75
2022/01/10 03:19:58;;;;;;;75.88;38.92;;;;;;;-1.35;100.00;97126.44;5115282;28;20057;-75
2022/01/10 03:22:26;;;;;;;82.88;41.45;;;;;;;-1.39;100.00;97119.09;5117669;28;20027;-76
2022/01/10 03:24:52;;;;;;;69.65;38.67;;;;;;;-1.37;100.00;97123.16;5115156;28;20035;-76
2022/01/10 03:27:18;;;;;;;78.32;40.13;;;;;;;-1.46;100.00;97121.91;5111701;28;20032;-74
2022/01/10 03:29:43;;;;;;;75.75;41.53;;;;;;;-1.42;100.00;97128.44;5105251;28;20510;-75
2022/01/10 03:32:08;;;;;;;81.47;41.33;;;;;;;-1.34;100.00;97121.84;5092969;28;20028;-75
2022/01/10 03:34:34;;;;;;;76.60;40.15;;;;;;;-1.23;100.00;97123.69;5107799;28;20024;-74
2022/01/10 03:37:00;;;;;;;79.30;41.78;;;;;;;-1.25;100.00;97131.97;5113274;28;20611;-75
2022/01/10 03:39:25;;;;;;;74.85;38.97;;;;;;;-1.36;100.00;97123.97;5114459;28;20019;-75
2022/01/10 03:41:51;;;;;;;79.03;41.05;;;;;;;-1.31;100.00;97134.78;5114381;28;20077;-77
2022/01/10 03:44:16;;;;;;;79.10;38.33;;;;;;;-1.33;100.00;97134.22;5114695;28;20027;-75
2022/01/10 03:46:42;;;;;;;83.03;41.75;;;;;;;-1.25;100.00;97134.63;5100806;28;20366;-75
2022/01/10 03:49:07;;;;;;;79.90;41.28;;;;;;;-1.32;100.00;97131.31;5093971;28;20055;-75
2022/01/10 03:51:33;;;;;;;78.80;40.25;;;;;;;-1.30;100.00;97136.41;5092457;28;20036;-75
2022/01/10 03:53:59;;;;;;;79.47;40.97;;;;;;;-1.33;100.00;97128.84;5093731;28;20594;-74
2022/01/10 03:56:27;;;;;;;72.45;39.03;;;;;;;-1.23;100.00;97139.78;5093673;28;20040;-76
2022/01/10 03:58:53;;;;;;;80.60;42.55;;;;;;;-1.17;100.00;97139.63;5093792;28;20020;-76
2022/01/10 04:01:18;;;;;;;79.00;41.55;;;;;;;-1.24;100.00;97143.50;5094048;28;20020;-75
2022/01/10 04:03:43;;;;;;;78.13;39.85;;;;;;;-1.32;100.00;97136.69;5093476;28;21466;-75
2022/01/10 04:06:09;;;;;;;84.95;42.05;;;;;;;-1.37;100.00;97133.88;5093775;28;20491;-75
2022/01/10 04:08:35;;;;;;;74.07;39.88;;;;;;;-1.44;100.00;97135.88;5093244;28;20008;-75
2022/01/10 04:11:00;;;;;;;71.30;38.20;;;;;;;-1.20;100.00;97140.13;5092062;28;20057;-75
2022/01/10 04:13:26;;;;;;;73.03;39.92;;;;;;;-1.14;100.00;97143.69;5093818;28;20061;-75
2022/01/10 04:15:52;;;;;;;68.22;36.78;;;;;;;-1.15;100.00;97148.25;5096730;28;20111;-77
2022/01/10 04:18:18;;;;;;;77.15;40.63;;;;;;;-1.23;100.00;97140.59;5095141;28;20097;-76
2022/01/10 04:20:44;;;;;;;74.68;38.45;;;;;;;-1.21;100.00;97148.38;5093591;28;20385;-75
2022/01/10 04:23:10;;;;;;;74.75;39.70;;;;;;;-1.22;100.00;97142.19;5106304;28;20556;-75
2022/01/10 04:25:36;;;;;;;74.90;40.92;;;;;;;-1.31;100.00;97154.38;5113439;28;20032;-75
2022/01/10 04:28:01;;;;;;;75.35;38.92;;;;;;;-1.23;100.00;97145.97;5112833;28;20361;-76
2022/01/10 04:30:27;;;;;;;82.78;41.75;;;;;;;-1.22;100.00;97150.25;5113895;28;20028;-75
2022/01/10 04:32:52;;;;;;;76.97;40.60;;;;;;;-1.27;100.00;97146.66;5115486;28;20026;-74
2022/01/10 04:35:18;;;;;;;89.25;41.78;;;;;;;-1.31;100.00;97140.16;5113957;28;20031;-76
2022/01/10 04:37:44;;;;;;;75.57;41.67;;;;;;;-1.34;100.00;97152.16;5113664;28;20081;-75
2022/01/10 04:40:10;;;;;;;77.78;40.85;;;;;;;-1.26;100.00;97157.16;5113404;28;20015;-75
2022/01/10 04:42:36;;;;;;;78.82;40.45;;;;;;;-1.17;100.00;97152.22;5114271;28;20123;-76
2022/01/10 04:45:03;;;;;;;78.97;41.30;;;;;;;-1.26;100.00;97153.66;5115415;28;20016;-75
2022/01/10 04:47:28;;;;;;;74.05;39.10;;;;;;;-1.26;100.00;97150.97;5116443;28;20057;-75
2022/01/10 04:52:25;;;;;;;76.30;38.55;;;;;;;-1.23;100.00;97156.69;5115984;28;20019;-76
2022/01/10 04:54:51;;;;;;;83.90;41.88;;;;;;;-1.29;100.00;97167.56;5116186;28;20031;-75
2022/01/10 04:57:16;;;;;;;76.65;40.55;;;;;;;-1.43;100.00;97169.69;5116265;28;20044;-79
2022/01/10 04:59:42;;;;;;;77.72;39.95;;;;;;;-1.32;100.00;97171.53;5116515;28;20033;-75
2022/01/10 05:02:07;;;;;;;80.45;40.85;;;;;;;-1.42;100.00;97174.03;5116446;28;20028;-77
2022/01/10 05:04:33;;;;;;;77.28;42.15;;;;;;;-1.41;100.00;97170.25;5114167;28;20039;-75
2022/01/10 05:06:58;;;;;;;77.75;42.08;;;;;;;-1.36;100.00;97183.78;5113311;28;20020;-75
2022/01/10 05:09:23;;;;;;;80.85;43.20;;;;;;;-1.39;100.00;97184.25;5112977;28;20011;-75
2022/01/10 05:11:49;;;;;;;79.13;40.92;;;;;;;-1.43;100.00;97185.78;5114985;28;20474;-77
2022/01/10 05:14:14;;;;;;;83.93;42.78;;;;;;;-1.49;100.00;97188.59;5113870;28;20035;-75
2022/01/10 05:16:40;;;;;;;80.85;43.30;;;;;;;-1.52;100.00;97195.25;5112518;28;20790;-74
2022/01/10 05:19:08;;;;;;;83.15;43.63;;;;;;;-1.49;100.00;97184.06;5112885;28;20042;-74
2022/01/10 05:21:34;;;;;;;79.18;41.47;;;;;;;-1.39;100.00;97186.94;5111230;28;20026;-75
2022/01/10 05:23:59;;;;;;;77.95;43.58;;;;;;;-1.47;100.00;97191.88;5092182;28;20028;-75
2022/01/10 05:26:25;;;;;;;78.60;43.55;;;;;;;-1.49;100.00;97196.66;5092083;28;20028;-74
2022/01/10 05:28:52;;;;;;;81.70;42.70;;;;;;;-1.45;100.00;97200.50;5092284;28;20481;-78
2022/01/10 05:31:18;;;;;;;77.30;40.05;;;;;;;-1.40;100.00;97203.25;5092219;28;20027;-75
2022/01/10 05:33:44;;;;;;;89.70;43.60;;;;;;;-1.46;100.00;97207.72;5100598;28;20357;-76
2022/01/10 05:36:10;;;;;;;85.28;44.60;;;;;;;-1.48;100.00;97207.16;5109911;28;20166;-75
2022/01/10 05:38:36;;;;;;;80.85;44.17;;;;;;;-1.47;100.00;97211.44;5112286;28;20039;-76
2022/01/10 05:41:02;;;;;;;78.47;42.58;;;;;;;-1.34;100.00;97207.66;5115695;28;20380;-74
2022/01/10 05:43:27;;;;;;;77.22;41.65;;;;;;;-1.29;100.00;97218.50;5111713;28;20031;-74
2022/01/10 05:45:53;;;;;;;75.13;40.38;;;;;;;-1.25;100.00;97223.16;5112482;28;20026;-75
2022/01/10 05:48:26;;;;;;;81.05;42.60;;;;;;;-1.27;100.00;97225.25;5111764;28;20031;-76
2022/01/10 05:50:52;;;;;;;78.30;41.70;;;;;;;-1.34;100.00;97226.44;5110646;28;20024;-75
2022/01/10 05:53:19;;;;;;;73.85;41.50;;;;;;;-1.41;100.00;97215.84;5110661;28;20036;-75
2022/01/10 05:55:45;;;;;;;81.22;40.85;;;;;;;-1.45;100.00;97214.72;5110993;28;20036;-75
2022/01/10 05:58:10;;;;;;;86.40;43.13;;;;;;;-1.42;100.00;97233.00;5112160;28;20050;-75
2022/01/10 06:00:36;;;;;;;84.40;43.10;;;;;;;-1.49;100.00;97232.31;5112102;28;20032;-75
2022/01/10 06:03:02;;;;;;;86.78;42.58;;;;;;;-1.42;100.00;97230.31;5112263;28;20392;-74
2022/01/10 06:05:30;;;;;;;81.80;41.88;;;;;;;-1.42;100.00;97230.31;5107654;28;20027;-76
2022/01/10 06:07:56;;;;;;;78.85;41.65;;;;;;;-1.53;100.00;97219.59;5107813;28;20072;-76
2022/01/10 06:10:21;;;;;;;86.03;44.17;;;;;;;-1.39;100.00;97232.53;5113391;28;20036;-75
2022/01/10 06:12:47;;;;;;;90.55;46.92;;;;;;;-1.39;100.00;97242.44;5113030;28;20026;-75
2022/01/10 06:15:12;;;;;;;80.10;41.58;;;;;;;-1.37;100.00;97245.69;5109980;28;20096;-74
2022/01/10 06:17:38;;;;;;;83.38;43.63;;;;;;;-1.35;100.00;97247.09;5111610;28;20054;-75
2022/01/10 06:20:04;;;;;;;86.10;45.03;;;;;;;-1.43;100.00;97250.13;5109168;28;20483;-75
2022/01/10 06:22:29;;;;;;;90.35;46.72;;;;;;;-1.30;100.00;97247.19;5110302;28;20027;-74
2022/01/10 06:24:55;;;;;;;83.70;44.28;;;;;;;-1.25;100.00;97255.34;5104595;28;20084;-76
2022/01/10 06:27:21;;;;;;;86.82;44.92;;;;;;;-1.32;100.00;97257.34;5102835;28;20051;-75
2022/01/10 06:29:46;;;;;;;91.63;46.75;;;;;;;-1.16;100.00;97264.63;5105822;28;20074;-75
2022/01/10 06:32:12;;;;;;;88.60;47.70;;;;;;;-1.18;100.00;97264.06;5092937;28;20039;-74
2022/01/10 06:34:37;;;;;;;87.45;46.05;;;;;;;-1.14;100.00;97269.78;5111556;28;20042;-75
2022/01/10 06:37:03;;;;;;;86.15;41.65;;;;;;;-1.06;100.00;97277.44;5111582;28;20022;-75
2022/01/10 06:39:28;;;;;;;84.78;43.75;;;;;;;-1.17;100.00;97273.75;5111421;28;20027;-75
2022/01/10 06:41:54;;;;;;;84.30;43.35;;;;;;;-1.28;100.00;97279.94;5111176;28;20026;-75
2022/01/10 06:44:19;;;;;;;82.57;42.20;;;;;;;-1.30;100.00;97286.59;5111542;28;20399;-75
2022/01/10 06:46:44;;;;;;;85.57;44.90;;;;;;;-1.22;100.00;97289.72;5110825;28;20027;-75
2022/01/10 06:49:10;;;;;;;87.82;47.17;;;;;;;-1.25;100.00;97295.56;5110241;28;20498;-75
2022/01/10 06:51:35;;;;;;;82.32;44.97;;;;;;;-1.30;100.00;97295.47;5110599;28;20063;-75
2022/01/10 06:54:01;;;;;;;85.53;45.00;;;;;;;-1.27;100.00;97297.69;5110946;28;20027;-75
2022/01/10 06:56:26;;;;;;;93.10;47.22;;;;;;;-1.17;100.00;97300.56;5111067;28;20043;-75
2022/01/10 06:58:53;;;;;;;94.50;45.85;;;;;;;-1.19;100.00;97304.56;5111685;28;20028;-74
2022/01/10 07:01:20;;;;;;;81.93;43.45;;;;;;;-1.13;100.00;97307.06;5110037;28;20120;-74
2022/01/10 07:03:45;;;;;;;87.82;45.70;;;;;;;-1.15;100.00;97303.00;5107973;28;21226;-75
2022/01/10 07:06:10;;;;;;;88.20;44.42;;;;;;;-1.12;100.00;97291.81;5094753;28;20046;-75
2022/01/10 07:08:36;;;;;;;77.68;40.78;;;;;;;-1.11;100.00;97312.22;5090136;28;20389;-74
2022/01/10 07:11:02;;;;;;;84.47;45.42;;;;;;;-1.09;100.00;97318.97;5090851;28;20020;-74
2022/01/10 07:13:27;;;;;;;83.45;42.15;;;;;;;-1.05;100.00;97316.63;5092000;28;20031;-75
2022/01/10 07:15:53;;;;;;;70.07;39.22;;;;;;;-1.05;100.00;97316.63;5093678;28;20074;-75
2022/01/10 07:18:18;;;;;;;75.22;41.03;;;;;;;-1.00;100.00;97326.66;5090535;28;20035;-74
2022/01/10 07:20:43;;;;;;;79.07;40.95;;;;;;;-1.00;100.00;97324.78;5090431;28;20031;-75
2022/01/10 07:23:09;;;;;;;70.10;38.15;;;;;;;-0.93;100.00;97328.16;5090294;28;20024;-74
2022/01/10 07:25:35;;;;;;;86.07;42.72;;;;;;;-0.83;100.00;97330.22;5090129;28;20111;-74
2022/01/10 07:28:01;;;;;;;91.05;42.42;;;;;;;-0.86;100.00;97330.69;5090298;28;20028;-74
2022/01/10 07:30:26;;;;;;;85.18;44.45;;;;;;;-0.84;100.00;97336.63;5090574;28;20024;-74
2022/01/10 07:32:52;;;;;;;79.97;42.00;;;;;;;-0.82;100.00;97339.91;5090607;28;20031;-74
2022/01/10 07:35:18;;;;;;;77.93;41.92;;;;;;;-0.70;100.00;97354.09;5090178;28;20445;-74
2022/01/10 07:37:43;;;;;;;90.47;44.67;;;;;;;-0.72;100.00;97356.22;5090277;28;20052;-73
2022/01/10 07:40:09;;;;;;;82.75;43.60;;;;;;;-0.51;100.00;97360.94;5104292;28;20046;-74
2022/01/10 07:42:35;;;;;;;82.43;42.08;;;;;;;-0.47;100.00;97362.06;5092622;28;20039;-75
2022/01/10 07:45:00;;;;;;;82.22;40.47;;;;;;;-0.26;100.00;97369.47;5090489;28;20028;-75
2022/01/10 07:47:26;;;;;;;80.90;41.47;;;;;;;0.02;100.00;97362.41;5089836;28;20058;-75
2022/01/10 07:49:51;;;;;;;78.45;40.05;;;;;;;0.19;100.00;97372.09;5089436;28;20081;-75
2022/01/10 07:52:17;;;;;;;75.57;39.90;;;;;;;0.36;100.00;97364.88;5089211;28;20085;-74
2022/01/10 07:54:44;;;;;;;75.82;39.33;;;;;;;0.50;100.00;97374.22;5089710;28;20028;-75
2022/01/10 07:57:10;;;;;;;74.63;39.45;;;;;;;0.73;100.00;97370.53;5090342;28;20048;-75
2022/01/10 07:59:35;;;;;;;69.60;37.42;;;;;;;1.15;100.00;97372.72;5092997;28;20034;-75
2022/01/10 08:02:01;;;;;;;69.95;37.85;;;;;;;1.67;100.00;97365.00;5093214;28;20388;-75
2022/01/10 08:04:26;;;;;;;61.30;35.55;;;;;;;2.11;100.00;97374.59;5108039;28;20034;-80
2022/01/10 08:06:51;;;;;;;65.07;36.92;;;;;;;2.42;100.00;97383.78;5098475;28;20031;-77
2022/01/10 08:09:18;;;;;;;64.75;35.85;;;;;;;2.91;97.98;97382.53;5104997;28;20007;-75
2022/01/10 08:11:44;;;;;;;66.32;36.75;;;;;;;3.57;92.92;97391.00;5114772;28;20034;-75
2022/01/10 08:14:09;;;;;;;58.45;33.45;;;;;;;4.43;86.85;97393.88;5113062;28;20031;-75
2022/01/10 08:16:34;;;;;;;58.15;32.40;;;;;;;5.07;82.55;97394.13;5113750;28;20059;-75
2022/01/10 08:19:00;;;;;;;58.63;31.35;;;;;;;5.73;78.01;97387.38;5113575;28;20102;-75
2022/01/10 08:21:25;;;;;;;56.63;32.00;;;;;;;5.55;76.71;97376.34;5106357;27;20020;-75
2022/01/10 08:23:51;;;;;;;49.03;28.73;;;;;;;6.40;73.84;97399.53;5092915;28;20072;-76
2022/01/10 08:26:16;;;;;;;54.53;30.08;;;;;;;7.23;70.65;97397.47;5093499;28;20047;-75
2022/01/10 08:28:42;;;;;;;52.30;31.13;;;;;;;7.55;67.99;97407.72;5107796;28;20019;-75
2022/01/10 08:31:09;;;;;;;52.88;33.38;;;;;;;7.63;67.29;97419.91;5092288;28;20097;-74
2022/01/10 08:33:36;;;;;;;52.60;31.65;;;;;;;8.07;65.52;97415.00;5113575;28;20023;-75
2022/01/10 08:36:01;;;;;;;50.00;30.33;;;;;;;8.63;63.19;97411.50;5114017;28;20123;-73
2022/01/10 08:38:27;;;;;;;46.28;27.42;;;;;;;9.20;61.30;97415.75;5112608;27;20764;-74
2022/01/10 08:40:52;;;;;;;55.38;33.97;;;;;;;8.37;63.11;97420.06;5113350;28;20038;-74
2022/01/10 08:43:18;;;;;;;49.47;30.95;;;;;;;9.12;61.58;97419.97;5105213;28;20055;-75
2022/01/10 08:45:44;;;;;;;47.35;30.63;;;;;;;9.62;58.98;97427.25;5106271;28;20441;-75
2022/01/10 08:48:10;;;;;;;50.90;30.88;;;;;;;9.46;58.59;97425.91;5113132;28;20024;-74
2022/01/10 08:50:36;;;;;;;51.75;32.15;;;;;;;9.57;58.18;97421.06;5113183;28;20035;-74
2022/01/10 08:53:07;;;;;;;53.45;32.22;;;;;;;9.32;58.75;97438.72;5114080;28;20391;-75
2022/01/10 08:55:32;;;;;;;57.83;34.35;;;;;;;8.68;59.85;97433.25;5113009;28;20426;-73
2022/01/10 08:58:01;;;;;;;51.75;32.97;;;;;;;8.26;62.70;97445.81;5113242;28;20027;-73
2022/01/10 09:00:27;;;;;;;56.13;35.03;;;;;;;8.53;62.03;97443.25;5113132;28;20541;-73
2022/01/10 09:02:53;;;;;;;55.83;35.28;;;;;;;7.95;63.56;97456.28;5112873;28;20024;-73
2022/01/10 09:05:19;;;;;;;57.50;35.70;;;;;;;8.56;61.52;97452.75;5112604;27;20068;-74
2022/01/10 09:07:45;;;;;;;51.00;33.28;;;;;;;8.43;61.27;97453.50;5112770;28;20059;-74
2022/01/10 09:10:11;;;;;;;55.10;34.75;;;;;;;8.84;60.02;97467.34;5112722;28;20035;-73
2022/01/10 09:12:38;;;;;;;57.08;34.65;;;;;;;9.25;59.65;97462.84;5111840;28;20031;-75
2022/01/10 09:15:05;;;;;;;57.22;35.70;;;;;;;8.40;60.93;97470.44;5111608;28;20450;-74
2022/01/10 09:17:31;;;;;;;54.05;35.13;;;;;;;9.50;58.81;97476.06;5108812;28;20111;-75
2022/01/10 09:19:56;;;;;;;55.50;33.78;;;;;;;9.39;58.50;97477.38;5111065;28;20110;-74
2022/01/10 09:22:21;;;;;;;55.28;34.95;;;;;;;9.63;57.38;97478.03;5111530;28;20541;-75
2022/01/10 09:24:47;;;;;;;55.10;34.40;;;;;;;9.05;60.09;97474.13;5111373;28;20046;-75
2022/01/10 09:27:14;;;;;;;54.42;35.15;;;;;;;9.68;58.04;97475.19;5112380;28;20051;-77
2022/01/10 09:29:40;;;;;;;62.35;36.95;;;;;;;9.37;58.42;97485.03;5114182;28;20106;-74
2022/01/10 09:32:08;;;;;;;55.05;34.92;;;;;;;9.10;59.24;97482.22;5109505;28;20380;-74
2022/01/10 09:34:35;;;;;;;60.17;35.08;;;;;;;8.61;61.37;97469.84;5100333;28;20573;-74
2022/01/10 09:37:02;;;;;;;58.80;37.40;;;;;;;9.63;57.92;97480.75;5103302;28;20102;-73
2022/01/10 09:39:27;;;;;;;56.05;38.15;;;;;;;9.03;59.35;97474.41;5091150;28;20078;-73
2022/01/10 09:41:56;;;;;;;56.05;35.70;;;;;;;9.28;58.32;97489.56;5094671;28;20032;-74
2022/01/10 09:44:22;;;;;;;62.65;38.00;;;;;;;9.05;60.45;97476.84;5110575;28;20019;-74
2022/01/10 09:46:48;;;;;;;59.63;35.92;;;;;;;9.45;59.25;97484.34;5098173;28;20024;-73
2022/01/10 09:49:13;;;;;;;53.75;33.80;;;;;;;9.51;58.60;97488.63;5093299;28;20026;-75
2022/01/10 09:51:39;;;;;;;50.10;32.22;;;;;;;11.18;54.88;97482.44;5093359;28;20039;-78
2022/01/10 09:54:05;;;;;;;51.67;32.35;;;;;;;10.70;55.03;97477.50;5105167;28;20016;-76
2022/01/10 09:56:31;;;;;;;51.53;31.52;;;;;;;11.53;52.67;97478.78;5090506;28;20040;-76
2022/01/10 09:58:58;;;;;;;48.92;28.42;;;;;;;11.34;52.82;97486.38;5090931;28;20081;-76
2022/01/10 10:01:25;;;;;;;44.42;27.08;;;;;;;10.83;54.14;97486.00;5097976;28;20032;-75
2022/01/10 10:03:51;;;;;;;45.15;26.90;;;;;;;11.71;52.06;97480.56;5088909;28;20032;-75
2022/01/10 10:06:18;;;;;;;28.83;18.92;;;;;;;11.43;51.60;97462.63;5094397;28;20024;-76
2022/01/10 10:08:44;;;;;;;29.70;19.02;;;;;;;11.77;50.70;97471.06;5107326;27;20032;-76
2022/01/10 10:11:11;;;;;;;28.02;18.98;;;;;;;11.38;51.62;97465.47;5089889;28;20020;-75
2022/01/10 10:13:55;;;;;;;35.95;21.52;;;;;;;10.73;52.95;97462.41;5094527;28;20028;-75
2022/01/10 10:16:22;;;;;;;31.35;20.55;;;;;;;10.01;56.63;97464.19;5100378;28;20059;-78
2022/01/10 10:18:47;;;;;;;35.08;19.60;;;;;;;10.45;56.05;97461.66;5108103;28;20118;-85
2022/01/10 10:21:18;;;;;;;29.17;19.02;;;;;;;11.26;53.94;97457.84;5097187;28;20788;-76
2022/01/10 10:23:48;;;;;;;29.80;19.05;;;;;;;11.93;51.76;97471.47;5101818;28;20040;-75
2022/01/10 10:26:24;;;;;;;29.05;19.48;;;;;;;11.44;51.92;97469.69;5108272;28;20051;-79
2022/01/10 10:28:51;;;;;;;31.88;20.25;;;;;;;12.05;51.88;97468.94;5099772;28;20027;-86
2022/01/10 10:31:43;;;;;;;29.33;18.20;;;;;;;12.04;51.74;97466.50;5111278;28;20128;-75
2022/01/10 10:34:10;;;;;;;31.00;18.05;;;;;;;12.48;50.73;97466.31;5099707;28;20032;-75
2022/01/10 10:36:37;;;;;;;32.05;19.50;;;;;;;11.53;52.15;97475.22;5100724;28;20019;-76
2022/01/10 10:39:07;;;;;;;30.63;19.73;;;;;;;12.52;51.12;97459.06;5099689;28;20120;-76
2022/01/10 10:41:37;;;;;;;31.27;18.77;;;;;;;12.78;49.89;97470.88;5101489;28;20102;-76
2022/01/10 10:44:04;;;;;;;30.60;18.38;;;;;;;12.67;49.31;97463.28;5103005;28;20028;-77
2022/01/10 10:46:30;;;;;;;27.45;17.38;;;;;;;12.61;50.50;97476.34;5105789;28;20023;-76
2022/01/10 10:49:02;;;;;;;29.10;17.30;;;;;;;12.08;51.32;97472.97;5099462;28;20496;-77
2022/01/10 10:51:29;;;;;;;32.25;19.77;;;;;;;12.34;50.24;97465.66;5096680;28;20028;-76
2022/01/10 10:54:17;;;;;;;29.05;18.50;;;;;;;11.11;52.97;97465.63;5095672;28;20027;-74
2022/01/10 10:56:43;;;;;;;34.47;21.58;;;;;;;11.22;53.60;97469.72;5093248;28;20052;-75
2022/01/10 10:59:11;;;;;;;30.20;19.42;;;;;;;11.34;53.42;97464.47;5107512;28;20044;-74
2022/01/10 11:01:39;;;;;;;32.80;20.85;;;;;;;10.85;54.29;97461.84;5096949;28;20063;-75
2022/01/10 11:04:06;;;;;;;37.38;20.98;;;;;;;10.54;54.57;97459.81;5097230;28;20062;-76
2022/01/10 11:06:34;;;;;;;36.70;21.58;;;;;;;11.25;53.01;97467.16;5101413;28;20053;-74
2022/01/10 11:09:03;;;;;;;35.03;21.42;;;;;;;11.59;51.88;97461.09;5100040;28;20066;-75
2022/01/10 11:11:29;;;;;;;28.42;18.90;;;;;;;11.47;52.68;97469.06;5098586;28;20480;-76
2022/01/10 11:13:56;;;;;;;30.13;19.73;;;;;;;11.60;52.59;97462.72;5089373;28;20063;-75
2022/01/10 11:16:22;;;;;;;27.17;17.27;;;;;;;10.98;54.48;97466.47;5095052;28;20022;-76
2022/01/10 11:18:48;;;;;;;28.92;17.92;;;;;;;10.73;54.60;97468.69;5096835;28;20032;-77
2022/01/10 11:21:15;;;;;;;32.78;20.33;;;;;;;11.26;53.33;97457.03;5088769;28;20021;-76
2022/01/10 11:23:43;;;;;;;31.42;19.83;;;;;;;11.17;53.94;97470.66;5099494;28;20622;-74